Oppenheim, New York
Current Conditions -  °F | °C
As of 11:35 AM on Thursday 23 Oct 2014 (Local Time) from KNY0 Reporting Station
Overcast Overcast  
Wind Chill:   Ceiling: 1000
Heat Index:   Visibility: 4mi
Dew Point:   Wind: 7mph
Humidity: 98%   Direction: 270°W
Pressure: 29.86"   Gusts: NA
Location:  43.1048°N, 74.7138°W
Report Text: KNY0 231535Z AUTO 27006KT 4SM SCT003 BKN010 OVC017 07/07 A2986 RMK AO2 P0007 T00700067
Loading
Personal Weather Stations






























Interactive Weather Map
Tropical Storm Tracking
New forecast layout! Learn more

10-Day Weather Forecast

Advertisements
Track Severe Weather on mobile